Data for 07/06/2006

Time Sea-Level Adjusted Pressure Absolute Pressure Temperature Relative Humidity Dew Point   
(mb) (inHg) (mb) (inHg) (C) (F) (%) (C) (F)
00:05 1020 30.12 850 25.1 17.1 62.9 79 13.5 56.2
00:10 1020 30.12 849 25.07 17.1 62.7 79 13.5 56.3
00:15 1020 30.12 849 25.07 16.9 62.5 80 13.5 56.2
00:20 1020 30.12 849 25.07 17 62.7 80 13.6 56.4
00:25 1020 30.12 849 25.07 16.9 62.3 82 13.8 56.8
00:30 1020 30.12 849 25.07 16.4 61.6 84 13.8 56.9
00:35 1020 30.12 849 25.07 16.1 61.1 86 13.9 57
00:40 1020 30.12 849 25.07 16 60.7 87 13.8 56.9
00:45 1020 30.12 849 25.07 15.9 60.7 87 13.8 56.8
00:50 1020 30.12 849 25.07 16 60.7 87 13.8 56.9
00:55 1020 30.12 849 25.07 16 60.8 87 13.8 56.8
01:00 1020 30.12 849 25.07 16 60.9 88 14 57.2
01:05 1020 30.12 849 25.07 16.1 61 86 13.8 56.8
01:10 1020 30.12 849 25.07 15.9 60.6 87 13.8 56.9
01:15 1020 30.12 849 25.07 15.6 60.1 90 13.9 57.1
01:20 1020 30.12 849 25.07 15.7 60.3 88 13.8 56.8
01:25 1020 30.12 849 25.07 15.7 60.2 88 13.8 56.8
01:30 1019 30.09 849 25.07 15.6 60.2 90 14 57.1
01:35 1019 30.09 849 25.07 15.9 60.6 88 13.9 57
01:40 1019 30.09 849 25.07 15.8 60.5 87 13.7 56.7
01:45 1020 30.12 849 25.07 15.7 60.2 88 13.6 56.5
01:50 1019 30.09 849 25.07 15.7 60.2 87 13.6 56.4
01:55 1019 30.09 849 25.07 15.7 60.3 87 13.6 56.5
02:00 1019 30.09 849 25.07 15.8 60.4 87 13.6 56.5
02:05 1020 30.12 849 25.07 15.7 60.2 88 13.7 56.6
02:10 1020 30.12 849 25.07 15.6 60 88 13.6 56.4
02:15 1020 30.12 849 25.07 15.6 60.1 88 13.6 56.5
02:20 1020 30.12 849 25.07 15.5 59.8 89 13.6 56.5
02:25 1020 30.12 849 25.07 15.4 59.7 89 13.6 56.4
02:30 1020 30.12 849 25.07 15.6 60.1 89 13.7 56.7
02:35 1020 30.12 849 25.07 15.7 60.3 89 13.9 57.1
02:40 1020 30.12 849 25.07 15.7 60.3 90 14 57.3
02:45 1020 30.12 849 25.07 15.7 60.2 90 14 57.2
02:50 1020 30.12 849 25.07 15.6 60.1 90 14 57.2
02:55 1020 30.12 849 25.07 15.5 59.9 91 14 57.3
03:00 1020 30.12 849 25.07 15.5 59.8 92 14.1 57.4
03:05 1020 30.12 849 25.07 15.2 59.4 94 14.2 57.6
03:10 1020 30.12 849 25.07 15.1 59.1 95 14.2 57.5
03:15 1020 30.12 849 25.07 15 59 95 14.2 57.6
03:20 1020 30.12 849 25.07 15 59 95 14.2 57.6
03:25 1020 30.12 849 25.07 15 59 95 14.3 57.7
03:30 1020 30.12 849 25.07 15.2 59.3 95 14.4 58
03:35 1020 30.12 849 25.07 15.3 59.5 94 14.3 57.7
03:40 1020 30.12 849 25.07 15.3 59.5 95 14.4 57.9
03:45 1020 30.12 849 25.07 15.3 59.5 94 14.3 57.8
03:50 1020 30.12 849 25.07 15.3 59.6 92 14.1 57.4
03:55 1020 30.12 849 25.07 15.2 59.3 93 14 57.3
04:00 1020 30.12 849 25.07 15.2 59.3 93 14.1 57.4
04:05 1020 30.12 849 25.07 15.3 59.6 92 14 57.3
04:10 1020 30.12 849 25.07 15.3 59.5 92 13.9 57
04:15 1020 30.12 849 25.07 15.4 59.7 90 13.8 56.9
04:20 1020 30.12 849 25.07 15.5 59.8 91 13.9 57.1
04:25 1020 30.12 849 25.07 15.6 60 90 13.9 57.1
04:30 1020 30.12 849 25.07 15.6 60 91 14.1 57.4
04:35 1020 30.12 849 25.07 15.3 59.6 92 14 57.3
04:40 1020 30.12 849 25.07 15.1 59.2 93 13.9 57.1
04:45 1020 30.12 849 25.07 15 59 93 13.9 57
04:50 1020 30.12 849 25.07 14.8 58.7 93 13.8 56.8
04:55 1020 30.12 849 25.07 14.8 58.6 93 13.7 56.6
05:00 1020 30.12 849 25.07 14.7 58.4 93 13.6 56.5
05:05 1020 30.12 849 25.07 14.7 58.5 93 13.6 56.4
05:10 1020 30.12 849 25.07 14.7 58.4 93 13.5 56.3
05:15 1020 30.12 849 25.07 14.6 58.3 93 13.5 56.3
05:20 1020 30.12 849 25.07 14.6 58.3 93 13.4 56.2
05:25 1020 30.12 849 25.07 14.6 58.3 93 13.4 56.2
05:30 1020 30.12 849 25.07 14.6 58.2 93 13.4 56.1
05:35 1020 30.12 849 25.07 14.5 58.1 93 13.4 56.1
05:40 1020 30.12 849 25.07 14.4 57.9 94 13.4 56.2
05:45 1020 30.12 849 25.07 14.5 58 93 13.4 56.1
05:50 1020 30.12 849 25.07 14.3 57.7 94 13.3 55.9
05:55 1020 30.12 849 25.07 14.2 57.5 94 13.3 55.9
06:00 1020 30.12 849 25.07 14.1 57.5 95 13.3 56
06:05 1020 30.12 849 25.07 14.2 57.6 92 12.9 55.2
06:10 1020 30.12 849 25.07 14.2 57.6 92 12.9 55.2
06:15 1020 30.12 849 25.07 14.1 57.4 92 12.8 55
06:20 1020 30.12 850 25.1 14.4 57.9 91 12.9 55.2
06:25 1020 30.12 850 25.1 14.6 58.2 88 12.6 54.6
06:30 1020 30.12 850 25.1 14.5 58.2 88 12.6 54.7
06:35 1021 30.15 850 25.1 14.4 57.9 88 12.4 54.3
06:40 1021 30.15 850 25.1 14.4 58 87 12.3 54.1
06:45 1021 30.15 850 25.1 14.5 58.2 87 12.3 54.2
06:50 1021 30.15 850 25.1 14.6 58.2 87 12.4 54.3
06:55 1021 30.15 850 25.1 14.6 58.4 85 12.2 54
07:00 1021 30.15 850 25.1 15 58.9 84 12.4 54.3
07:05 1021 30.15 850 25.1 15.7 60.2 81 12.5 54.5
07:10 1021 30.15 850 25.1 15.9 60.7 81 12.6 54.7
07:15 1021 30.15 850 25.1 16.2 61.2 79 12.7 54.8
07:20 1021 30.15 850 25.1 15.9 60.6 84 13.2 55.7
07:25 1021 30.15 850 25.1 16.1 60.9 80 12.7 54.9
07:30 1021 30.15 850 25.1 16.2 61.2 80 12.8 55.1
07:35 1021 30.15 850 25.1 16.4 61.6 80 13.1 55.5
07:40 1021 30.15 850 25.1 17.1 62.7 78 13.2 55.7
07:45 1021 30.15 850 25.1 17.3 63.1 77 13.3 55.9
07:50 1021 30.15 850 25.1 17.8 64 74 13.1 55.6
07:55 1021 30.15 850 25.1 17.8 64 73 12.9 55.2
08:00 1021 30.15 850 25.1 18.2 64.7 72 13.1 55.5
08:05 1021 30.15 850 25.1 18.7 65.6 70 13.1 55.6
08:10 1021 30.15 850 25.1 19.2 66.5 67 13.1 55.6
08:15 1021 30.15 850 25.1 19.6 67.2 64 12.7 54.8
08:20 1021 30.15 850 25.1 19.5 67.2 64 12.6 54.6
08:25 1021 30.15 850 25.1 19.7 67.5 63 12.5 54.5
08:30 1021 30.15 850 25.1 20 68 61 12.3 54.1
08:35 1021 30.15 850 25.1 19.8 67.6 63 12.6 54.6
08:40 1021 30.15 850 25.1 20 68 61 12.5 54.4
08:45 1021 30.15 850 25.1 20.1 68.2 59 12.1 53.7
08:50 1021 30.15 850 25.1 19.4 66.9 60 11.5 52.7
08:55 1021 30.15 850 25.1 20 68 57 11.2 52.2
09:00 1021 30.15 850 25.1 20.7 69.3 55 11.4 52.6
09:05 1021 30.15 850 25.1 21.4 70.6 53 11.5 52.8
09:10 1021 30.15 851 25.13 21.1 69.9 54 11.4 52.6
09:15 1021 30.15 851 25.13 20.7 69.2 56 11.7 53
09:20 1021 30.15 851 25.13 20.9 69.6 54 11.5 52.6
09:25 1021 30.15 851 25.13 20.4 68.6 58 11.9 53.4
09:30 1022 30.18 851 25.13 20.9 69.6 53 11.1 52
09:35 1021 30.15 851 25.13 20.7 69.3 54 11.1 51.9
09:40 1021 30.15 851 25.13 20.6 69 53 10.8 51.5
09:45 1021 30.15 851 25.13 21 69.8 50 10.4 50.8
09:50 1021 30.15 851 25.13 21.5 70.8 50 10.8 51.4
09:55 1021 30.15 851 25.13 21.1 70 53 11.4 52.6
10:00 1021 30.15 851 25.13 21.5 70.7 53 11.7 53.1
10:05 1021 30.15 850 25.1 22.5 72.4 50 11.8 53.2
10:10 1021 30.15 850 25.1 21.9 71.5 52 11.8 53.2
10:15 1021 30.15 850 25.1 21.9 71.4 49 10.7 51.3
10:20 1021 30.15 850 25.1 22.3 72.2 49 11.3 52.4
10:25 1021 30.15 850 25.1 22.6 72.7 46 10.6 51.1
10:30 1021 30.15 850 25.1 23.1 73.6 46 11.2 52.1
10:35 1021 30.15 850 25.1 23.3 73.9 44 10.5 50.9
10:40 1021 30.15 850 25.1 24.2 75.6 41 10.5 50.8
10:45 1021 30.15 850 25.1 24.4 76 40 10.2 50.4
10:50 1021 30.15 850 25.1 24.5 76.2 41 10.7 51.2
10:55 1021 30.15 850 25.1 24.5 76.1 42 10.9 51.6
11:00 1021 30.15 850 25.1 25.1 77.1 38 10.1 50.2
11:05 1021 30.15 850 25.1 24.8 76.7 40 10.5 50.9
11:10 1021 30.15 850 25.1 25.4 77.6 38 10.3 50.6
11:15 1021 30.15 850 25.1 25.5 78 38 10.2 50.4
11:20 1021 30.15 850 25.1 25.5 77.9 38 10.5 50.9
11:25 1021 30.15 850 25.1 25.5 77.8 37 9.8 49.6
11:30 1021 30.15 850 25.1 25.5 77.8 37 10 49.9
11:35 1021 30.15 850 25.1 25.4 77.7 37 9.7 49.5
11:40 1021 30.15 850 25.1 25.1 77.2 32 7.5 45.5
11:45 1021 30.15 850 25.1 25.8 78.5 30 7.2 44.9
11:50 1021 30.15 850 25.1 25.6 78 30 7 44.5
11:55 1021 30.15 851 25.13 25.5 77.8 32 7.7 45.8
12:00 1021 30.15 851 25.13 25.3 77.6 32 7.5 45.5
12:05 1021 30.15 851 25.13 25.6 78.1 31 7.4 45.4
12:10 1021 30.15 851 25.13 25.7 78.3 32 7.9 46.2
12:15 1021 30.15 851 25.13 25.7 78.2 30 7.1 44.8
12:20 1021 30.15 851 25.13 26.4 79.6 26 5.9 42.6
12:25 1021 30.15 851 25.13 26.2 79.2 29 6.9 44.5
12:30 1021 30.15 851 25.13 26 78.7 28 6.4 43.6
12:35 1021 30.15 851 25.13 26.1 79 27 5.7 42.3
12:40 1021 30.15 851 25.13 26.5 79.7 27 6.5 43.8
12:45 1021 30.15 851 25.13 25.6 78 30 7.1 44.7
12:50 1021 30.15 850 25.1 25.7 78.3 29 6.7 44.1
12:55 1021 30.15 850 25.1 26.4 79.5 28 6.5 43.7
13:00 1021 30.15 850 25.1 26.7 80 28 6.7 44.1
13:05 1021 30.15 850 25.1 26.2 79.1 29 7 44.6
13:10 1021 30.15 850 25.1 26.5 79.7 28 6.9 44.5
13:15 1021 30.15 850 25.1 27.4 81.3 27 7.2 45
13:20 1021 30.15 850 25.1 27.4 81.3 26 6.7 44.1
13:25 1021 30.15 850 25.1 26.8 80.3 28 6.8 44.3
13:30 1021 30.15 850 25.1 26.7 80.1 28 6.9 44.4
13:35 1021 30.15 850 25.1 26.7 80 28 6.8 44.2
13:40 1021 30.15 850 25.1 26.8 80.2 27 6.4 43.5
13:45 1021 30.15 850 25.1 27.3 81.1 26 6.2 43.2
13:50 1021 30.15 850 25.1 27.3 81.2 26 6.3 43.3
13:55 1021 30.15 850 25.1 27 80.6 27 6.9 44.5
14:00 1021 30.15 850 25.1 27.3 81.1 27 6.8 44.2
14:05 1021 30.15 850 25.1 27.8 82 26 6.6 43.9
14:10 1021 30.15 850 25.1 27.4 81.3 26 6.6 43.8
14:15 1020 30.12 850 25.1 26.7 80.1 26 6.1 43
14:20 1020 30.12 850 25.1 26.3 79.4 27 6.3 43.4
14:25 1020 30.12 850 25.1 26.9 80.4 26 6 42.9
14:30 1020 30.12 850 25.1 28.3 82.9 24 5.9 42.6
14:35 1020 30.12 849 25.07 28.4 83 23 5.4 41.6
14:40 1020 30.12 849 25.07 28.4 83.2 24 6.2 43.2
14:45 1020 30.12 849 25.07 27.1 80.8 27 6.6 43.8
14:50 1020 30.12 849 25.07 27.6 81.8 25 6.3 43.4
14:55 1020 30.12 849 25.07 26.9 80.4 26 6.3 43.4
15:00 1020 30.12 849 25.07 27.3 81.1 26 6.1 43
15:05 1020 30.12 849 25.07 28.2 82.8 23 5.6 42.1
15:10 1020 30.12 849 25.07 29.1 84.5 22 5.3 41.6
15:15 1020 30.12 849 25.07 29.1 84.3 22 5.5 42
15:20 1020 30.12 849 25.07 28.4 83.2 22 5 41
15:25 1020 30.12 849 25.07 28.9 84 22 5.5 42
15:30 1020 30.12 849 25.07 29 84.3 21 5.1 41.2
15:35 1020 30.12 849 25.07 28.7 83.7 22 5.1 41.2
15:40 1020 30.12 849 25.07 28.5 83.3 23 5.9 42.6
15:45 1020 30.12 849 25.07 28 82.5 24 5.7 42.2
15:50 1020 30.12 849 25.07 27.9 82.2 23 5.2 41.3
15:55 1020 30.12 849 25.07 28 82.5 25 6.3 43.4
16:00 1019 30.09 849 25.07 28 82.4 25 6.2 43.2
16:05 1020 30.12 849 25.07 27.9 82.2 24 5.9 42.7
16:10 1020 30.12 849 25.07 27.9 82.2 24 6 42.9
16:15 1020 30.12 849 25.07 27.4 81.4 25 6 42.9
16:20 1019 30.09 849 25.07 27.4 81.4 25 6 42.8
16:25 1019 30.09 849 25.07 27.6 81.7 25 5.8 42.5
16:30 1019 30.09 849 25.07 27.6 81.7 24 5.4 41.8
16:35 1019 30.09 849 25.07 27.4 81.2 26 6.3 43.3
16:40 1019 30.09 849 25.07 27.3 81.1 27 7.1 44.8
16:45 1019 30.09 849 25.07 27.3 81.2 26 6.3 43.3
16:50 1019 30.09 849 25.07 27.3 81.2 26 6.6 43.9
16:55 1019 30.09 849 25.07 27.3 81.2 27 6.9 44.4
17:00 1019 30.09 849 25.07 27.4 81.3 25 6.1 43.1
17:05 1019 30.09 849 25.07 27.4 81.4 26 6.7 44
17:10 1019 30.09 849 25.07 27.5 81.5 25 6.2 43.2
17:15 1019 30.09 849 25.07 27.7 81.8 25 6.1 42.9
17:20 1019 30.09 849 25.07 27.6 81.8 25 6.4 43.6
17:25 1019 30.09 849 25.07 27.3 81.2 26 6.5 43.7
17:30 1019 30.09 849 25.07 27.2 80.9 26 6.3 43.4
17:35 1019 30.09 848 25.04 27.2 81 27 6.6 43.9
17:40 1019 30.09 849 25.07 27.3 81.1 26 6.6 43.9
17:45 1019 30.09 848 25.04 27.6 81.6 27 7.4 45.3
17:50 1019 30.09 848 25.04 26.9 80.3 37 11 51.8
17:55 1019 30.09 848 25.04 25.4 77.8 39 10.9 51.5
18:00 1019 30.09 849 25.07 25.1 77.2 40 10.9 51.5
18:05 1019 30.09 849 25.07 25 77.1 40 10.6 51.1
18:10 1019 30.09 849 25.07 24.9 76.8 39 10.3 50.5
18:15 1019 30.09 849 25.07 25 76.9 40 10.6 51.1
18:20 1020 30.12 849 25.07 25.1 77.1 39 10.3 50.6
18:25 1020 30.12 849 25.07 25 77 39 10.4 50.7
18:30 1020 30.12 849 25.07 24.7 76.5 46 12.4 54.3
18:35 1020 30.12 849 25.07 24.2 75.6 46 12 53.5
18:40 1020 30.12 849 25.07 23.6 74.6 47 12 53.6
18:45 1020 30.12 849 25.07 22.9 73.2 44 10.3 50.5
18:50 1020 30.12 849 25.07 22.2 71.9 47 10.5 50.8
18:55 1020 30.12 849 25.07 22.1 71.7 45 9.7 49.5
19:00 1020 30.12 849 25.07 22.3 72.2 46 10.2 50.4
19:05 1020 30.12 849 25.07 22.6 72.6 45 10.4 50.6
19:10 1020 30.12 849 25.07 22.6 72.7 44 9.8 49.7
19:15 1020 30.12 849 25.07 22.8 73 43 9.8 49.7
19:20 1020 30.12 849 25.07 23.3 73.9 44 10.6 51.2
19:25 1020 30.12 849 25.07 23.4 74.2 43 10.3 50.6
19:30 1019 30.09 849 25.07 23.3 74 45 11 51.7
19:35 1020 30.12 849 25.07 23.1 73.5 47 11.3 52.4
19:40 1020 30.12 849 25.07 22.5 72.5 54 13 55.4
19:45 1020 30.12 849 25.07 21.6 70.9 55 12.2 54
19:50 1020 30.12 849 25.07 21.3 70.3 57 12.6 54.6
19:55 1020 30.12 849 25.07 21.3 70.4 58 12.9 55.1
20:00 1020 30.12 849 25.07 21.3 70.3 58 12.9 55.2
20:05 1020 30.12 849 25.07 21.4 70.6 55 12.2 54
20:10 1020 30.12 849 25.07 21.4 70.5 57 12.6 54.7
20:15 1020 30.12 849 25.07 21.6 70.9 51 11.3 52.3
20:20 1020 30.12 849 25.07 21.6 70.9 50 11 51.8
20:25 1020 30.12 849 25.07 21.4 70.6 53 11.6 52.9
20:30 1020 30.12 849 25.07 21.1 70 51 10.7 51.2
20:35 1020 30.12 849 25.07 21.1 70 48 9.9 49.9
20:40 1020 30.12 849 25.07 21.1 69.9 53 11.3 52.3
20:45 1020 30.12 849 25.07 21 69.8 51 10.7 51.2
20:50 1020 30.12 849 25.07 20.8 69.5 52 10.9 51.5
20:55 1020 30.12 849 25.07 20.3 68.6 57 11.7 53.1
21:00 1020 30.12 849 25.07 20 67.9 66 13.5 56.3
21:05 1020 30.12 849 25.07 19.4 66.9 59 11.3 52.4
21:10 1021 30.15 850 25.1 19.2 66.6 65 12.6 54.7
21:15 1021 30.15 851 25.13 19 66.2 70 13.5 56.2
21:20 1022 30.18 851 25.13 17.6 63.7 75 13.3 55.9
21:25 1022 30.18 851 25.13 16.8 62.3 76 12.7 54.8
21:30 1022 30.18 851 25.13 16.4 61.5 74 11.9 53.3
21:35 1022 30.18 851 25.13 16.4 61.5 74 11.8 53.2
21:40 1022 30.18 851 25.13 16.3 61.4 76 12.2 53.9
21:45 1022 30.18 852 25.16 16.1 61 80 12.6 54.7
21:50 1022 30.18 852 25.16 15.8 60.4 80 12.4 54.3
21:55 1022 30.18 852 25.16 15.7 60.3 81 12.5 54.5
22:00 1023 30.21 852 25.16 15.5 60 85 13.1 55.6
22:05 1022 30.18 852 25.16 15.2 59.3 88 13.2 55.8
22:10 1022 30.18 852 25.16 15 59 90 13.3 56
22:15 1023 30.21 852 25.16 14.8 58.6 91 13.3 55.9
22:20 1023 30.21 852 25.16 14.7 58.4 89 12.9 55.1
22:25 1023 30.21 852 25.16 15 58.9 87 12.9 55.3
22:30 1023 30.21 852 25.16 15.1 59.2 89 13.3 55.9
22:35 1023 30.21 852 25.16 15 59.1 88 13.1 55.6
22:40 1023 30.21 852 25.16 15.1 59.1 84 12.4 54.4
22:45 1023 30.21 852 25.16 15.5 59.8 82 12.5 54.4
22:50 1023 30.21 852 25.16 15.7 60.2 85 13.2 55.8
22:55 1023 30.21 852 25.16 15.9 60.7 81 12.7 54.8
23:00 1023 30.21 852 25.16 16.2 61.2 81 13 55.4
23:05 1023 30.21 852 25.16 16.1 60.9 86 13.8 56.9
23:10 1023 30.21 852 25.16 15.6 60.1 89 13.8 56.9
23:15 1023 30.21 852 25.16 15.7 60.2 89 13.9 57
23:20 1023 30.21 852 25.16 15.7 60.3 89 13.9 57
23:25 1023 30.21 853 25.19 15.4 59.7 90 13.8 56.9
23:30 1023 30.21 852 25.16 15.3 59.5 90 13.6 56.4
23:35 1023 30.21 852 25.16 15.5 59.9 88 13.5 56.3
23:40 1023 30.21 852 25.16 15.7 60.2 85 13.2 55.7
23:45 1023 30.21 853 25.19 15.7 60.2 85 13.1 55.6
23:50 1023 30.21 853 25.19 15.8 60.5 83 13 55.4
23:55 1023 30.21 853 25.19 15.8 60.5 83 13 55.5
24:00 1024 30.24 853 25.19 15.5 60 86 13.1 55.7